Emden — 3ERP5 — position and weather

sailwx.info

Track history (hours):
 
Tides and Currents Weather Stations Pressure Air Temp Water Temp Dewpoint Dewpoint Depression Visibility Wind Speed Wind Dir Waves Ship Positions

Emden

Last reported at 2016-May-29 14:33 UTC. Time now 2016-May-29 15:28 UTC.
Position N 48°33' W 006°06'.

Length 177 m; draft 7.7 m.

Type: Ship. MMSI: 355051000.

Date/timePositionNaut miles runAvg speedWind from/ knotsBaromVisibWave heightAir tempDewpointWater temp
2016-May-29 14:33N 48°33' W 006°06'1615.0
2016-May-29 13:30N 48°49' W 006°04'1414.8
2016-May-29 12:33N 49°03' W 006°03'1514.7
2016-May-29 11:33N 49°18' W 006°01'5613.9
2016-May-29 07:33N 50°14' W 005°59'1413.7
2016-May-29 06:34N 50°27' W 005°60'1414.2
2016-May-29 05:33N 50°41' W 005°60'1814.5
2016-May-29 04:19N 50°59' W 005°60'1114.6
2016-May-29 03:33N 51°11' W 005°60'7 0.2
2016-May-27 17:32N 51°05' W 005°53'1515.1
2016-May-27 16:34N 50°50' W 005°53'1515.4
2016-May-27 15:34N 50°35' W 005°54'1515.4
2016-May-27 14:33N 50°20' W 005°55'1515.3
2016-May-27 13:34N 50°04' W 005°55'2612.2
2016-May-27 11:27N 49°50' W 005°21'1415.0
2016-May-27 10:33N 49°51' W 005°00'1414.6
2016-May-27 09:33N 49°53' W 004°38'1514.5
2016-May-27 08:32N 49°55' W 004°15'1414.7
2016-May-27 07:34N 49°56' W 003°53'1515.2
2016-May-27 06:34N 49°57' W 003°30'1616.3
2016-May-27 05:34N 49°59' W 003°05'1717.3
2016-May-27 04:33N 50°04' W 002°38'2517.7
2016-May-27 03:10N 50°10' W 002°01'2716.2
2016-May-27 01:32N 50°18' W 001°22'1414.1
2016-May-27 00:33N 50°21' W 001°01'1313.0
2016-May-26 23:33N 50°26' W 000°42'1313.1
2016-May-26 22:33N 50°29' W 000°22'1414.4
2016-May-26 21:34N 50°33' E 000°00'1615.7
2016-May-26 20:33N 50°37' E 000°24'3316.5
2016-May-26 18:33N 50°55' E 001°08'1515.5
2016-May-26 17:33N 51°04' E 001°27'1414.1
2016-May-26 16:34N 51°14' E 001°44'1413.9
2016-May-26 15:33N 51°25' E 001°57'1514.6
2016-May-26 14:33N 51°37' E 002°11'1915.6
2016-May-26 13:19N 51°51' E 002°32'13215.1
2016-May-26 04:33N 53°32' E 004°53'1616.1
2016-May-26 03:33N 53°37' E 005°19'1616.1
2016-May-26 02:33N 53°42' E 005°45'1514.8
2016-May-26 01:33N 53°42' E 006°10'1212.3
2016-May-26 00:33N 53°37' E 006°28'1312.9
2016-May-25 23:33N 53°31' E 006°47'1211.8
2016-May-25 22:33N 53°21' E 006°59'7 6.6
2016-May-25 21:33N 53°20' E 007°10'0 0.4
2016-May-25 20:33N 53°20' E 007°11'0 0.0
2016-May-25 19:33N 53°20' E 007°11'0 0.0
2016-May-25 18:33N 53°20' E 007°11'0 0.0
2016-May-25 17:33N 53°20' E 007°11'0 0.0
2016-May-25 16:33N 53°20' E 007°11'0 0.0
2016-May-25 15:33N 53°20' E 007°11'0 0.0
2016-May-25 14:33N 53°20' E 007°11'0 0.0
2016-May-25 13:33N 53°20' E 007°11'0 0.0
2016-May-25 12:33N 53°20' E 007°11'0 0.0
2016-May-25 11:33N 53°20' E 007°11'0 0.0
2016-May-25 10:33N 53°20' E 007°11'0 0.0
2016-May-25 09:33N 53°20' E 007°11'0 0.0
2016-May-25 08:33N 53°20' E 007°11'0 0.0
2016-May-25 07:33N 53°20' E 007°11'0 0.0
2016-May-25 06:33N 53°20' E 007°11'0 0.0
2016-May-25 05:33N 53°20' E 007°11'0 0.0
2016-May-25 04:33N 53°20' E 007°11'0 0.0
2016-May-25 03:33N 53°20' E 007°11'0 0.0
2016-May-25 02:32N 53°20' E 007°11'0 0.0
2016-May-25 01:32N 53°20' E 007°11'0 0.0
2016-May-25 00:32N 53°20' E 007°11'0 0.0
2016-May-24 23:32N 53°20' E 007°11'0 0.0
2016-May-24 22:32N 53°20' E 007°11'0 0.0
2016-May-24 21:32N 53°20' E 007°11'0 0.0
2016-May-24 20:32N 53°20' E 007°11'0 0.0
2016-May-24 19:32N 53°20' E 007°11'0 0.0
2016-May-24 18:32N 53°20' E 007°11'0 0.0
2016-May-24 17:34N 53°20' E 007°11'4 4.5
2016-May-24 16:34N 53°19' E 007°03'9 8.6
2016-May-24 15:33N 53°26' E 006°55'1111.1
2016-May-24 14:33N 53°33' E 006°41'1010.2
2016-May-24 13:34N 53°37' E 006°24'9 8.5
2016-May-24 12:34N 53°40' E 006°11'9 8.9
2016-May-24 11:34N 53°39' E 005°56'1413.7
2016-May-24 10:33N 53°35' E 005°34'1414.3
2016-May-24 09:34N 53°30' E 005°11'1413.9
2016-May-24 08:33N 53°25' E 004°49'1614.0
2016-May-24 07:25N 53°13' E 004°33'1315.2
2016-May-24 06:33N 53°02' E 004°22'1414.3
2016-May-24 05:33N 52°49' E 004°12'1514.5
2016-May-24 04:33N 52°37' E 003°56'1514.6
2016-May-24 03:33N 52°27' E 003°39'7114.1
2016-May-23 22:32N 51°35' E 002°22'1212.6
2016-May-23 21:33N 51°25' E 002°11'1211.9
2016-May-23 20:33N 51°14' E 002°03'1211.9
2016-May-23 19:33N 51°08' E 001°46'1211.9
2016-May-23 18:33N 51°00' E 001°33'5012.4
2016-May-23 14:31N 50°25' E 000°36'1313.6
2016-May-23 13:33N 50°22' E 000°16'1413.8
2016-May-23 12:34N 50°18' W 000°05'1514.5
2016-May-23 11:33N 50°14' W 000°26'1615.7
2016-May-23 10:33N 50°10' W 000°50'1716.7
2016-May-23 09:33N 50°05' W 001°15'1717.3
2016-May-23 08:33N 50°00' W 001°41'4916.3
2016-May-23 05:34N 49°48' W 002°54'1915.2
2016-May-23 04:18N 49°38' W 003°20'1414.8
2016-May-23 03:21N 49°31' W 003°39'5213.1
2016-May-22 23:23N 49°06' W 004°48'1312.0
2016-May-22 22:18N 48°59' W 005°05'912.0
2016-May-22 21:32N 48°54' W 005°17'1212.3
2016-May-22 20:33N 48°47' W 005°32'55313.5
2016-May-21 03:26N 40°06' W 009°50'1314.4
2016-May-21 02:32N 39°53' W 009°50'3314.3
2016-May-21 00:15N 39°20' W 009°51'1014.2
2016-May-20 23:33N 39°10' W 009°51'1414.1
2016-May-20 22:33N 38°56' W 009°52'1413.9
2016-May-20 21:34N 38°42' W 009°51'1313.0
2016-May-20 20:33N 38°32' W 009°41'1313.0
2016-May-20 19:33N 38°25' W 009°27'1212.1
2016-May-20 18:33N 38°20' W 009°13'1312.8
2016-May-20 17:34N 38°26' W 008°59'7 6.9
2016-May-20 16:32N 38°31' W 008°52'0 0.0
2016-May-20 15:32N 38°31' W 008°52'0 0.0
2016-May-20 14:32N 38°31' W 008°52'0 0.0
2016-May-20 13:32N 38°31' W 008°52'0 0.0
2016-May-20 12:29N 38°31' W 008°52'0 0.0
2016-May-20 11:32N 38°31' W 008°52'0 0.0
2016-May-20 10:32N 38°31' W 008°52'0 0.0
2016-May-20 08:28N 38°31' W 008°52'0 0.0
2016-May-20 07:31N 38°31' W 008°52'0 0.0
2016-May-20 06:25N 38°31' W 008°52'0 0.0
2016-May-20 05:31N 38°31' W 008°52'0 0.0
2016-May-20 04:31N 38°31' W 008°52'0 0.0
2016-May-20 03:28N 38°31' W 008°52'0 0.0
2016-May-20 02:13N 38°31' W 008°52'0 0.0
2016-May-20 01:28N 38°31' W 008°52'0 0.0
2016-May-19 23:22N 38°31' W 008°52'0 0.0
2016-May-19 22:31N 38°31' W 008°52'0 0.0
2016-May-19 21:16N 38°31' W 008°52'0 0.0
2016-May-19 20:31N 38°31' W 008°52'0 0.0
2016-May-19 19:22N 38°31' W 008°52'0 0.0
2016-May-19 18:19N 38°31' W 008°52'0 0.0
2016-May-19 17:31N 38°31' W 008°52'0 0.0
2016-May-19 16:31N 38°31' W 008°52'0 0.0
2016-May-19 15:31N 38°31' W 008°52'  
Track history (hours):
 
Tides and Currents Weather Stations Pressure Air Temp Water Temp Dewpoint Dewpoint Depression Visibility Wind Speed Wind Dir Waves Ship Positions

Emden

Last reported at 2016-May-29 14:33 UTC. Time now 2016-May-29 15:28 UTC.
Position N 48°33' W 006°06'.

Length 177 m; draft 7.7 m.

Type: Ship. MMSI: 355051000.

Date/timePositionNaut miles runAvg speedWind from/ knotsBaromVisibWave heightAir tempDewpointWater temp
2016-May-29 14:33N 48°33' W 006°06'1615.0
2016-May-29 13:30N 48°49' W 006°04'1414.8
2016-May-29 12:33N 49°03' W 006°03'1514.7
2016-May-29 11:33N 49°18' W 006°01'5613.9
2016-May-29 07:33N 50°14' W 005°59'1413.7
2016-May-29 06:34N 50°27' W 005°60'1414.2
2016-May-29 05:33N 50°41' W 005°60'1814.5
2016-May-29 04:19N 50°59' W 005°60'1114.6
2016-May-29 03:33N 51°11' W 005°60'7 0.2
2016-May-27 17:32N 51°05' W 005°53'1515.1
2016-May-27 16:34N 50°50' W 005°53'1515.4
2016-May-27 15:34N 50°35' W 005°54'1515.4
2016-May-27 14:33N 50°20' W 005°55'1515.3
2016-May-27 13:34N 50°04' W 005°55'2612.2
2016-May-27 11:27N 49°50' W 005°21'1415.0
2016-May-27 10:33N 49°51' W 005°00'1414.6
2016-May-27 09:33N 49°53' W 004°38'1514.5
2016-May-27 08:32N 49°55' W 004°15'1414.7
2016-May-27 07:34N 49°56' W 003°53'1515.2
2016-May-27 06:34N 49°57' W 003°30'1616.3
2016-May-27 05:34N 49°59' W 003°05'1717.3
2016-May-27 04:33N 50°04' W 002°38'2517.7
2016-May-27 03:10N 50°10' W 002°01'2716.2
2016-May-27 01:32N 50°18' W 001°22'1414.1
2016-May-27 00:33N 50°21' W 001°01'1313.0
2016-May-26 23:33N 50°26' W 000°42'1313.1
2016-May-26 22:33N 50°29' W 000°22'1414.4
2016-May-26 21:34N 50°33' E 000°00'1615.7
2016-May-26 20:33N 50°37' E 000°24'3316.5
2016-May-26 18:33N 50°55' E 001°08'1515.5
2016-May-26 17:33N 51°04' E 001°27'1414.1
2016-May-26 16:34N 51°14' E 001°44'1413.9
2016-May-26 15:33N 51°25' E 001°57'1514.6
2016-May-26 14:33N 51°37' E 002°11'1915.6
2016-May-26 13:19N 51°51' E 002°32'13215.1
2016-May-26 04:33N 53°32' E 004°53'1616.1
2016-May-26 03:33N 53°37' E 005°19'1616.1
2016-May-26 02:33N 53°42' E 005°45'1514.8
2016-May-26 01:33N 53°42' E 006°10'1212.3
2016-May-26 00:33N 53°37' E 006°28'1312.9
2016-May-25 23:33N 53°31' E 006°47'1211.8
2016-May-25 22:33N 53°21' E 006°59'7 6.6
2016-May-25 21:33N 53°20' E 007°10'0 0.4
2016-May-25 20:33N 53°20' E 007°11'0 0.0
2016-May-25 19:33N 53°20' E 007°11'0 0.0
2016-May-25 18:33N 53°20' E 007°11'0 0.0
2016-May-25 17:33N 53°20' E 007°11'0 0.0
2016-May-25 16:33N 53°20' E 007°11'0 0.0
2016-May-25 15:33N 53°20' E 007°11'0 0.0
2016-May-25 14:33N 53°20' E 007°11'0 0.0
2016-May-25 13:33N 53°20' E 007°11'0 0.0
2016-May-25 12:33N 53°20' E 007°11'0 0.0
2016-May-25 11:33N 53°20' E 007°11'0 0.0
2016-May-25 10:33N 53°20' E 007°11'0 0.0
2016-May-25 09:33N 53°20' E 007°11'0 0.0
2016-May-25 08:33N 53°20' E 007°11'0 0.0
2016-May-25 07:33N 53°20' E 007°11'0 0.0
2016-May-25 06:33N 53°20' E 007°11'0 0.0
2016-May-25 05:33N 53°20' E 007°11'0 0.0
2016-May-25 04:33N 53°20' E 007°11'0 0.0
2016-May-25 03:33N 53°20' E 007°11'0 0.0
2016-May-25 02:32N 53°20' E 007°11'0 0.0
2016-May-25 01:32N 53°20' E 007°11'0 0.0
2016-May-25 00:32N 53°20' E 007°11'0 0.0
2016-May-24 23:32N 53°20' E 007°11'0 0.0
2016-May-24 22:32N 53°20' E 007°11'0 0.0
2016-May-24 21:32N 53°20' E 007°11'0 0.0
2016-May-24 20:32N 53°20' E 007°11'0 0.0
2016-May-24 19:32N 53°20' E 007°11'0 0.0
2016-May-24 18:32N 53°20' E 007°11'0 0.0
2016-May-24 17:34N 53°20' E 007°11'4 4.5
2016-May-24 16:34N 53°19' E 007°03'9 8.6
2016-May-24 15:33N 53°26' E 006°55'1111.1
2016-May-24 14:33N 53°33' E 006°41'1010.2
2016-May-24 13:34N 53°37' E 006°24'9 8.5
2016-May-24 12:34N 53°40' E 006°11'9 8.9
2016-May-24 11:34N 53°39' E 005°56'1413.7
2016-May-24 10:33N 53°35' E 005°34'1414.3
2016-May-24 09:34N 53°30' E 005°11'1413.9
2016-May-24 08:33N 53°25' E 004°49'1614.0
2016-May-24 07:25N 53°13' E 004°33'1315.2
2016-May-24 06:33N 53°02' E 004°22'1414.3
2016-May-24 05:33N 52°49' E 004°12'1514.5
2016-May-24 04:33N 52°37' E 003°56'1514.6
2016-May-24 03:33N 52°27' E 003°39'7114.1
2016-May-23 22:32N 51°35' E 002°22'1212.6
2016-May-23 21:33N 51°25' E 002°11'1211.9
2016-May-23 20:33N 51°14' E 002°03'1211.9
2016-May-23 19:33N 51°08' E 001°46'1211.9
2016-May-23 18:33N 51°00' E 001°33'5012.4
2016-May-23 14:31N 50°25' E 000°36'1313.6
2016-May-23 13:33N 50°22' E 000°16'1413.8
2016-May-23 12:34N 50°18' W 000°05'1514.5
2016-May-23 11:33N 50°14' W 000°26'1615.7
2016-May-23 10:33N 50°10' W 000°50'1716.7
2016-May-23 09:33N 50°05' W 001°15'1717.3
2016-May-23 08:33N 50°00' W 001°41'4916.3
2016-May-23 05:34N 49°48' W 002°54'1915.2
2016-May-23 04:18N 49°38' W 003°20'1414.8
2016-May-23 03:21N 49°31' W 003°39'5213.1
2016-May-22 23:23N 49°06' W 004°48'1312.0
2016-May-22 22:18N 48°59' W 005°05'912.0
2016-May-22 21:32N 48°54' W 005°17'1212.3
2016-May-22 20:33N 48°47' W 005°32'55313.5
2016-May-21 03:26N 40°06' W 009°50'1314.4
2016-May-21 02:32N 39°53' W 009°50'3314.3
2016-May-21 00:15N 39°20' W 009°51'1014.2
2016-May-20 23:33N 39°10' W 009°51'1414.1
2016-May-20 22:33N 38°56' W 009°52'1413.9
2016-May-20 21:34N 38°42' W 009°51'1313.0
2016-May-20 20:33N 38°32' W 009°41'1313.0
2016-May-20 19:33N 38°25' W 009°27'1212.1
2016-May-20 18:33N 38°20' W 009°13'1312.8
2016-May-20 17:34N 38°26' W 008°59'7 6.9
2016-May-20 16:32N 38°31' W 008°52'0 0.0
2016-May-20 15:32N 38°31' W 008°52'0 0.0
2016-May-20 14:32N 38°31' W 008°52'0 0.0
2016-May-20 13:32N 38°31' W 008°52'0 0.0
2016-May-20 12:29N 38°31' W 008°52'0 0.0
2016-May-20 11:32N 38°31' W 008°52'0 0.0
2016-May-20 10:32N 38°31' W 008°52'0 0.0
2016-May-20 08:28N 38°31' W 008°52'0 0.0
2016-May-20 07:31N 38°31' W 008°52'0 0.0
2016-May-20 06:25N 38°31' W 008°52'0 0.0
2016-May-20 05:31N 38°31' W 008°52'0 0.0
2016-May-20 04:31N 38°31' W 008°52'0 0.0
2016-May-20 03:28N 38°31' W 008°52'0 0.0
2016-May-20 02:13N 38°31' W 008°52'0 0.0
2016-May-20 01:28N 38°31' W 008°52'0 0.0
2016-May-19 23:22N 38°31' W 008°52'0 0.0
2016-May-19 22:31N 38°31' W 008°52'0 0.0
2016-May-19 21:16N 38°31' W 008°52'0 0.0
2016-May-19 20:31N 38°31' W 008°52'0 0.0
2016-May-19 19:22N 38°31' W 008°52'0 0.0
2016-May-19 18:19N 38°31' W 008°52'0 0.0
2016-May-19 17:31N 38°31' W 008°52'0 0.0
2016-May-19 16:31N 38°31' W 008°52'0 0.0
2016-May-19 15:31N 38°31' W 008°52'  

Dump ship's entire track history